Eureka, Louisiana
Current Conditions -  °F | °C
As of 1:15 PM on Tuesday 21 Oct 2014 (Local Time) from KRSN Reporting Station
Clear Clear  
Wind Chill: 77°   Ceiling: Unl
Heat Index: 79°   Visibility: 10mi
Dew Point: 60°   Wind: 6mph
Humidity: 56%   Direction: 50°NE
Pressure: 30.12"   Gusts: NA
Location:  32.6533°N, 92.3683°W
Report Text: KRSN 211815Z AUTO 05005KT 10SM CLR 25/16 A3012 RMK AO2 T02490155
Loading
Personal Weather Stations






























Interactive Weather Map
Tropical Storm Tracking
New forecast layout! Learn more

10-Day Weather Forecast

Advertisements
Track Severe Weather on mobile